createdAt,value
2022-10-02T00:03:43.226Z,18.1
2022-10-02T00:08:42.738Z,18.0
2022-10-02T00:13:42.300Z,15.0
2022-10-02T00:18:42.384Z,18.5
2022-10-02T00:23:43.733Z,16.1
2022-10-02T00:28:42.351Z,12.1
2022-10-02T00:33:42.307Z,10.0
2022-10-02T00:38:42.304Z,12.2
2022-10-02T00:43:42.337Z,10.5
2022-10-02T00:48:42.435Z,7.8
2022-10-02T00:53:42.287Z,7.9
2022-10-02T00:58:42.281Z,9.4
2022-10-02T01:03:42.433Z,9.3
2022-10-02T01:08:42.279Z,9.3
2022-10-02T01:13:42.277Z,7.8
2022-10-02T01:18:42.417Z,6.9
2022-10-02T01:23:42.298Z,6.3
2022-10-02T01:28:42.243Z,6.9
2022-10-02T01:33:42.501Z,7.6
2022-10-02T01:38:43.247Z,6.7
2022-10-02T01:43:42.246Z,7.1
2022-10-02T01:48:42.204Z,6.4
2022-10-02T01:53:42.169Z,7.3
2022-10-02T01:58:42.151Z,7.0
2022-10-02T02:03:42.286Z,8.3
2022-10-02T02:08:42.170Z,7.5
2022-10-02T02:13:42.222Z,8.9
2022-10-02T02:18:42.269Z,8.4
2022-10-02T02:23:42.140Z,8.2
2022-10-02T02:28:42.187Z,7.5
2022-10-02T02:33:42.311Z,7.3
2022-10-02T02:38:42.102Z,8.0
2022-10-02T02:43:42.164Z,7.7
2022-10-02T02:48:42.267Z,6.7
2022-10-02T02:53:42.152Z,6.7
2022-10-02T02:58:43.632Z,5.9
2022-10-02T03:03:42.170Z,5.6
2022-10-02T03:08:42.250Z,5.4
2022-10-02T03:13:42.274Z,5.5
2022-10-02T03:18:42.000Z,5.8
2022-10-02T03:23:42.067Z,4.8
2022-10-02T03:28:55.665Z,5.5
2022-10-02T03:33:42.078Z,4.8
2022-10-02T03:38:41.989Z,4.6
2022-10-02T03:43:42.150Z,4.8
2022-10-02T03:48:42.083Z,4.7
2022-10-02T03:53:42.067Z,4.8
2022-10-02T03:58:41.922Z,4.8
2022-10-02T04:03:41.992Z,5.0
2022-10-02T04:08:41.930Z,4.7
2022-10-02T04:13:42.433Z,4.6
2022-10-02T04:18:42.022Z,4.8
2022-10-02T04:23:42.067Z,4.2
2022-10-02T04:28:42.146Z,5.1
2022-10-02T04:33:42.012Z,4.3
2022-10-02T04:38:42.020Z,3.8
2022-10-02T04:43:42.197Z,3.6
2022-10-02T04:48:41.959Z,4.5
2022-10-02T04:53:42.005Z,4.1
2022-10-02T04:58:42.057Z,3.9
2022-10-02T05:03:41.964Z,3.7
2022-10-02T05:08:41.945Z,3.5
2022-10-02T05:13:41.836Z,3.2
2022-10-02T05:18:42.866Z,3.1
2022-10-02T05:23:41.827Z,4.0
2022-10-02T05:28:41.912Z,3.8
2022-10-02T05:33:45.958Z,3.8
2022-10-02T05:38:42.478Z,4.1
2022-10-02T05:43:42.027Z,4.4
2022-10-02T05:48:41.833Z,4.1
2022-10-02T05:53:41.728Z,4.4
2022-10-02T05:58:41.891Z,4.7
2022-10-02T06:03:41.835Z,5.7
2022-10-02T06:08:41.749Z,7.0
2022-10-02T06:13:41.915Z,8.1
2022-10-02T06:18:41.783Z,5.5
2022-10-02T06:23:41.820Z,5.6
2022-10-02T06:28:41.676Z,7.8
2022-10-02T06:33:41.704Z,6.5
2022-10-02T06:38:41.760Z,5.8
2022-10-02T06:43:42.132Z,4.5
2022-10-02T06:48:41.761Z,6.9
2022-10-02T06:53:41.763Z,4.8
2022-10-02T06:58:41.882Z,5.2
2022-10-02T07:03:41.689Z,5.3
2022-10-02T07:08:41.688Z,3.8
2022-10-02T07:13:41.755Z,4.1
2022-10-02T07:18:41.796Z,4.5
2022-10-02T07:23:41.801Z,4.4
2022-10-02T07:28:41.561Z,3.4
2022-10-02T07:33:41.637Z,4.9
2022-10-02T07:38:41.671Z,3.6
2022-10-02T07:43:41.763Z,3.0
2022-10-02T07:48:41.576Z,3.0
2022-10-02T07:53:41.761Z,4.9
2022-10-02T07:58:41.787Z,3.5
2022-10-02T08:03:41.616Z,2.5
2022-10-02T08:08:41.578Z,3.9
2022-10-02T08:13:41.974Z,3.8
2022-10-02T08:18:41.549Z,3.0
2022-10-02T08:23:41.485Z,3.1
2022-10-02T08:28:41.595Z,2.7
2022-10-02T08:33:41.900Z,3.3
2022-10-02T08:38:41.625Z,2.8
2022-10-02T08:43:41.873Z,3.1
2022-10-02T08:48:41.560Z,4.4
2022-10-02T08:53:41.681Z,3.0
2022-10-02T08:58:41.555Z,4.3
2022-10-02T09:03:41.565Z,4.5
2022-10-02T09:08:41.596Z,3.6
2022-10-02T09:13:41.524Z,3.2
2022-10-02T09:18:41.457Z,3.7
2022-10-02T09:23:41.720Z,8.0
2022-10-02T09:28:41.746Z,4.6
2022-10-02T09:33:41.515Z,2.6
2022-10-02T09:38:41.721Z,5.9
2022-10-02T09:43:41.434Z,4.3
2022-10-02T09:48:41.553Z,16.2
2022-10-02T09:53:41.703Z,10.2
2022-10-02T09:58:41.429Z,7.0
2022-10-02T10:03:41.528Z,6.2
2022-10-02T10:08:41.513Z,7.4
2022-10-02T10:13:41.361Z,4.9
2022-10-02T10:18:41.363Z,6.7
2022-10-02T10:23:41.493Z,11.5
2022-10-02T10:28:41.451Z,50.8
2022-10-02T10:33:41.318Z,44.4
2022-10-02T10:38:41.347Z,20.5
2022-10-02T10:43:42.172Z,24.9
2022-10-02T10:48:44.804Z,180.1
2022-10-02T10:53:42.067Z,163.7
2022-10-02T10:58:42.461Z,122.2
2022-10-02T11:03:41.351Z,58.6
2022-10-02T11:08:41.989Z,34.3
2022-10-02T11:13:41.278Z,81.6
2022-10-02T11:18:41.262Z,54.1
2022-10-02T11:23:41.357Z,22.6
2022-10-02T11:28:41.263Z,9.9
2022-10-02T11:33:41.164Z,2.5
2022-10-02T11:38:41.318Z,2.8
2022-10-02T11:43:44.105Z,2.0
2022-10-02T11:48:41.237Z,3.8
2022-10-02T11:53:41.313Z,2.9
2022-10-02T11:58:41.185Z,2.8
2022-10-02T12:03:41.403Z,2.8
2022-10-02T12:08:41.364Z,2.3
2022-10-02T12:13:41.279Z,2.8
2022-10-02T12:18:42.176Z,2.1
2022-10-02T12:23:41.170Z,1.8
2022-10-02T12:28:41.433Z,1.7
2022-10-02T12:33:41.127Z,2.0
2022-10-02T12:38:41.314Z,2.1
2022-10-02T12:43:41.202Z,2.9
2022-10-02T12:48:41.540Z,2.5
2022-10-02T12:53:41.536Z,3.1
2022-10-02T12:58:41.337Z,4.8
2022-10-02T13:03:41.320Z,3.7
2022-10-02T13:08:41.251Z,2.2
2022-10-02T13:13:41.211Z,3.2
2022-10-02T13:18:41.093Z,3.6
2022-10-02T13:23:42.166Z,3.1
2022-10-02T13:28:41.542Z,7.3
2022-10-02T13:33:41.165Z,9.5
2022-10-02T13:38:41.292Z,8.4
2022-10-02T13:43:41.136Z,12.9
2022-10-02T13:48:41.089Z,5.2
2022-10-02T13:53:41.395Z,4.4
2022-10-02T13:58:40.964Z,2.6
2022-10-02T14:03:41.399Z,7.4
2022-10-02T14:08:41.585Z,8.8
2022-10-02T14:13:41.190Z,10.1
2022-10-02T14:18:41.201Z,5.1
2022-10-02T14:23:41.332Z,3.0
2022-10-02T14:28:41.170Z,2.2
2022-10-02T14:33:41.165Z,1.1
2022-10-02T14:38:41.859Z,3.8
2022-10-02T14:43:41.196Z,2.7
2022-10-02T14:48:43.092Z,3.7
2022-10-02T14:53:41.950Z,306.2
2022-10-02T14:58:42.116Z,315.1
2022-10-02T15:03:42.213Z,137.9
2022-10-02T15:08:40.997Z,141.0
2022-10-02T15:13:43.182Z,19.3
2022-10-02T15:18:41.106Z,141.0
2022-10-02T15:23:41.012Z,21.8
2022-10-02T15:28:41.497Z,16.0
2022-10-02T15:33:40.870Z,7.1
2022-10-02T15:38:41.034Z,25.5
2022-10-02T15:43:41.812Z,38.3
2022-10-02T15:48:43.682Z,13.3
2022-10-02T15:53:40.902Z,17.5
2022-10-02T15:58:41.266Z,17.8
2022-10-02T16:03:41.152Z,19.9
2022-10-02T16:08:41.153Z,21.1
2022-10-02T16:13:46.319Z,42.6
2022-10-02T16:18:40.956Z,51.8
2022-10-02T16:23:41.131Z,13.4
2022-10-02T16:28:42.021Z,11.4
2022-10-02T16:33:40.875Z,6.0
2022-10-02T16:38:40.767Z,8.0
2022-10-02T16:43:40.956Z,20.1
2022-10-02T16:48:41.015Z,14.1
2022-10-02T16:53:40.882Z,14.0
2022-10-02T16:58:40.785Z,11.5
2022-10-02T17:03:40.796Z,12.1
2022-10-02T17:08:41.119Z,12.0
2022-10-02T17:13:40.909Z,15.1
2022-10-02T17:18:42.922Z,31.0
2022-10-02T17:23:41.930Z,63.4
2022-10-02T17:28:42.134Z,191.3
2022-10-02T17:33:40.929Z,283.4
2022-10-02T17:38:41.578Z,36.7
2022-10-02T17:43:40.692Z,135.3
2022-10-02T17:48:40.827Z,32.1
2022-10-02T17:53:41.951Z,61.3
2022-10-02T17:58:41.328Z,204.7
2022-10-02T18:03:40.730Z,256.7
2022-10-02T18:08:40.769Z,39.3
2022-10-02T18:13:42.066Z,8.1
2022-10-02T18:18:40.677Z,17.5
2022-10-02T18:23:40.671Z,23.6
2022-10-02T18:28:40.935Z,15.7
2022-10-02T18:33:40.523Z,5.9
2022-10-02T18:38:40.572Z,9.1
2022-10-02T18:43:40.850Z,8.2
2022-10-02T18:48:40.503Z,5.4
2022-10-02T18:53:40.461Z,10.6
2022-10-02T18:58:40.624Z,10.6
2022-10-02T19:03:40.456Z,21.0
2022-10-02T19:08:40.880Z,13.5
2022-10-02T19:13:40.826Z,12.9
2022-10-02T19:18:40.620Z,41.5
2022-10-02T19:23:40.627Z,22.1
2022-10-02T19:28:40.919Z,29.6
2022-10-02T19:38:40.821Z,14.8
2022-10-02T19:43:40.417Z,19.0
2022-10-02T19:48:40.451Z,18.8
2022-10-02T19:53:40.824Z,18.7
2022-10-02T19:58:40.610Z,18.7
2022-10-02T20:03:40.477Z,14.0
2022-10-02T20:08:40.485Z,13.7
2022-10-02T20:13:40.362Z,11.6
2022-10-02T20:18:40.364Z,9.5
2022-10-02T20:23:40.860Z,9.3
2022-10-02T20:28:40.347Z,11.3
2022-10-02T20:33:40.913Z,11.1
2022-10-02T20:38:40.452Z,9.5
2022-10-02T20:43:40.325Z,9.0
2022-10-02T20:49:06.374Z,8.1
2022-10-02T20:53:40.383Z,9.7
2022-10-02T20:58:40.313Z,9.5
2022-10-02T21:03:40.389Z,8.8
2022-10-02T21:08:40.358Z,7.1
2022-10-02T21:13:40.326Z,6.3
2022-10-02T21:18:40.305Z,5.7
2022-10-02T21:23:40.467Z,6.2
2022-10-02T21:28:40.226Z,6.0
2022-10-02T21:33:40.230Z,5.5
2022-10-02T21:38:40.313Z,5.0
2022-10-02T21:43:40.191Z,5.2
2022-10-02T21:48:40.240Z,5.2
2022-10-02T21:53:40.291Z,5.7
2022-10-02T21:58:40.186Z,5.1
2022-10-02T22:03:40.235Z,5.8
2022-10-02T22:08:40.323Z,5.3
2022-10-02T22:13:40.127Z,5.1
2022-10-02T22:18:40.132Z,17.1
2022-10-02T22:23:40.303Z,7.8
2022-10-02T22:28:40.196Z,11.9
2022-10-02T22:33:40.127Z,7.0
2022-10-02T22:38:40.373Z,8.6
2022-10-02T22:43:40.131Z,6.5
2022-10-02T22:48:40.402Z,6.3
2022-10-02T22:53:40.458Z,6.3
2022-10-02T22:58:40.055Z,6.0
2022-10-02T23:03:40.063Z,6.0
2022-10-02T23:08:40.198Z,8.1
2022-10-02T23:13:40.083Z,8.0
2022-10-02T23:18:40.010Z,7.3
2022-10-02T23:23:40.152Z,17.3
2022-10-02T23:28:40.032Z,11.4
2022-10-02T23:33:39.997Z,14.6
2022-10-02T23:38:40.218Z,6.9
2022-10-02T23:43:40.031Z,5.3
2022-10-02T23:48:40.026Z,6.1
2022-10-02T23:53:40.217Z,5.4
2022-10-02T23:58:39.964Z,5.9
